sensor_id;sensor_type;location;lat;lon;timestamp;temperature;humidity
6518;DHT22;3292;48.944;9.240;2024-03-02T00:01:31;5.60;99.90
6518;DHT22;3292;48.944;9.240;2024-03-02T00:03:59;5.60;99.90
6518;DHT22;3292;48.944;9.240;2024-03-02T00:06:26;5.60;99.90
6518;DHT22;3292;48.944;9.240;2024-03-02T00:08:57;5.60;99.90
6518;DHT22;3292;48.944;9.240;2024-03-02T00:11:24;5.60;99.90
6518;DHT22;3292;48.944;9.240;2024-03-02T00:13:53;5.60;99.90
6518;DHT22;3292;48.944;9.240;2024-03-02T00:16:20;5.60;99.90
6518;DHT22;3292;48.944;9.240;2024-03-02T00:18:47;5.60;99.90
6518;DHT22;3292;48.944;9.240;2024-03-02T00:21:15;5.70;99.90
6518;DHT22;3292;48.944;9.240;2024-03-02T00:23:45;5.70;99.90
6518;DHT22;3292;48.944;9.240;2024-03-02T00:26:12;5.70;99.90
6518;DHT22;3292;48.944;9.240;2024-03-02T00:28:40;5.70;99.90
6518;DHT22;3292;48.944;9.240;2024-03-02T00:31:10;5.70;99.90
6518;DHT22;3292;48.944;9.240;2024-03-02T00:33:41;5.70;99.90
6518;DHT22;3292;48.944;9.240;2024-03-02T00:36:09;5.80;99.90
6518;DHT22;3292;48.944;9.240;2024-03-02T00:38:44;5.70;99.90
6518;DHT22;3292;48.944;9.240;2024-03-02T00:41:17;5.70;99.90
6518;DHT22;3292;48.944;9.240;2024-03-02T00:43:47;5.60;99.90
6518;DHT22;3292;48.944;9.240;2024-03-02T00:46:17;5.60;99.90
6518;DHT22;3292;48.944;9.240;2024-03-02T00:48:51;5.50;99.90
6518;DHT22;3292;48.944;9.240;2024-03-02T00:51:20;5.50;99.90
6518;DHT22;3292;48.944;9.240;2024-03-02T00:53:48;5.60;99.90
6518;DHT22;3292;48.944;9.240;2024-03-02T00:56:16;5.50;99.90
6518;DHT22;3292;48.944;9.240;2024-03-02T00:58:43;5.50;99.90
6518;DHT22;3292;48.944;9.240;2024-03-02T01:01:10;5.50;99.90
6518;DHT22;3292;48.944;9.240;2024-03-02T01:03:36;5.50;99.90
6518;DHT22;3292;48.944;9.240;2024-03-02T01:06:04;5.50;99.90
6518;DHT22;3292;48.944;9.240;2024-03-02T01:08:33;5.50;99.90
6518;DHT22;3292;48.944;9.240;2024-03-02T01:11:01;5.40;99.90
6518;DHT22;3292;48.944;9.240;2024-03-02T01:13:28;5.50;99.90
6518;DHT22;3292;48.944;9.240;2024-03-02T01:15:55;5.50;99.90
6518;DHT22;3292;48.944;9.240;2024-03-02T01:18:22;5.50;99.90
6518;DHT22;3292;48.944;9.240;2024-03-02T01:20:49;5.50;99.90
6518;DHT22;3292;48.944;9.240;2024-03-02T01:23:17;5.50;99.90
6518;DHT22;3292;48.944;9.240;2024-03-02T01:25:45;5.50;99.90
6518;DHT22;3292;48.944;9.240;2024-03-02T01:28:13;5.50;99.90
6518;DHT22;3292;48.944;9.240;2024-03-02T01:30:40;5.50;99.90
6518;DHT22;3292;48.944;9.240;2024-03-02T01:33:07;5.50;99.90
6518;DHT22;3292;48.944;9.240;2024-03-02T01:35:33;5.50;99.90
6518;DHT22;3292;48.944;9.240;2024-03-02T01:38:01;5.50;99.90
6518;DHT22;3292;48.944;9.240;2024-03-02T01:40:28;5.60;99.90
6518;DHT22;3292;48.944;9.240;2024-03-02T01:42:55;5.60;99.90
6518;DHT22;3292;48.944;9.240;2024-03-02T01:45:24;5.60;99.90
6518;DHT22;3292;48.944;9.240;2024-03-02T01:47:52;5.60;99.90
6518;DHT22;3292;48.944;9.240;2024-03-02T01:50:25;5.60;99.90
6518;DHT22;3292;48.944;9.240;2024-03-02T01:52:52;5.60;99.90
6518;DHT22;3292;48.944;9.240;2024-03-02T01:55:19;5.50;99.90
6518;DHT22;3292;48.944;9.240;2024-03-02T01:57:46;5.60;99.90
6518;DHT22;3292;48.944;9.240;2024-03-02T02:00:14;5.50;99.90
6518;DHT22;3292;48.944;9.240;2024-03-02T02:02:43;5.50;99.90
6518;DHT22;3292;48.944;9.240;2024-03-02T02:05:10;5.40;99.90
6518;DHT22;3292;48.944;9.240;2024-03-02T02:07:37;5.40;99.90
6518;DHT22;3292;48.944;9.240;2024-03-02T02:10:04;5.30;99.90
6518;DHT22;3292;48.944;9.240;2024-03-02T02:12:32;5.30;99.90
6518;DHT22;3292;48.944;9.240;2024-03-02T02:14:59;5.30;99.90
6518;DHT22;3292;48.944;9.240;2024-03-02T02:17:26;5.40;99.90
6518;DHT22;3292;48.944;9.240;2024-03-02T02:19:54;5.40;99.90
6518;DHT22;3292;48.944;9.240;2024-03-02T02:22:22;5.30;99.90
6518;DHT22;3292;48.944;9.240;2024-03-02T02:24:49;5.40;99.90
6518;DHT22;3292;48.944;9.240;2024-03-02T02:27:15;5.40;99.90
6518;DHT22;3292;48.944;9.240;2024-03-02T02:29:42;5.40;99.90
6518;DHT22;3292;48.944;9.240;2024-03-02T02:32:09;5.40;99.90
6518;DHT22;3292;48.944;9.240;2024-03-02T02:34:36;5.30;99.90
6518;DHT22;3292;48.944;9.240;2024-03-02T02:37:02;5.20;99.90
6518;DHT22;3292;48.944;9.240;2024-03-02T02:39:30;5.10;99.90
6518;DHT22;3292;48.944;9.240;2024-03-02T02:41:57;5.00;99.90
6518;DHT22;3292;48.944;9.240;2024-03-02T02:44:26;5.00;99.90
6518;DHT22;3292;48.944;9.240;2024-03-02T02:46:53;4.90;99.90
6518;DHT22;3292;48.944;9.240;2024-03-02T02:49:20;4.90;99.90
6518;DHT22;3292;48.944;9.240;2024-03-02T02:51:46;4.90;99.90
6518;DHT22;3292;48.944;9.240;2024-03-02T02:54:13;4.90;99.90
6518;DHT22;3292;48.944;9.240;2024-03-02T02:56:41;4.90;99.90
6518;DHT22;3292;48.944;9.240;2024-03-02T02:59:08;4.80;99.90
6518;DHT22;3292;48.944;9.240;2024-03-02T03:01:35;4.80;99.90
6518;DHT22;3292;48.944;9.240;2024-03-02T03:04:01;4.80;99.90
6518;DHT22;3292;48.944;9.240;2024-03-02T03:06:28;4.70;99.90
6518;DHT22;3292;48.944;9.240;2024-03-02T03:08:55;4.70;99.90
6518;DHT22;3292;48.944;9.240;2024-03-02T03:11:23;4.60;99.90
6518;DHT22;3292;48.944;9.240;2024-03-02T03:13:53;4.60;99.90
6518;DHT22;3292;48.944;9.240;2024-03-02T03:16:20;4.50;99.90
6518;DHT22;3292;48.944;9.240;2024-03-02T03:18:47;4.50;99.90
6518;DHT22;3292;48.944;9.240;2024-03-02T03:21:15;4.50;99.90
6518;DHT22;3292;48.944;9.240;2024-03-02T03:23:42;4.50;99.90
6518;DHT22;3292;48.944;9.240;2024-03-02T03:26:09;4.50;99.90
6518;DHT22;3292;48.944;9.240;2024-03-02T03:28:36;4.40;99.90
6518;DHT22;3292;48.944;9.240;2024-03-02T03:31:04;4.40;99.90
6518;DHT22;3292;48.944;9.240;2024-03-02T03:33:31;4.40;99.90
6518;DHT22;3292;48.944;9.240;2024-03-02T03:35:58;4.30;99.90
6518;DHT22;3292;48.944;9.240;2024-03-02T03:38:25;4.40;99.90
6518;DHT22;3292;48.944;9.240;2024-03-02T03:40:52;4.40;99.90
6518;DHT22;3292;48.944;9.240;2024-03-02T03:43:18;4.40;99.90
6518;DHT22;3292;48.944;9.240;2024-03-02T03:45:45;4.30;99.90
6518;DHT22;3292;48.944;9.240;2024-03-02T03:48:13;4.20;99.90
6518;DHT22;3292;48.944;9.240;2024-03-02T03:50:40;4.20;99.90
6518;DHT22;3292;48.944;9.240;2024-03-02T03:53:07;4.10;99.90
6518;DHT22;3292;48.944;9.240;2024-03-02T03:55:34;4.10;99.90
6518;DHT22;3292;48.944;9.240;2024-03-02T03:58:04;4.10;99.90
6518;DHT22;3292;48.944;9.240;2024-03-02T04:00:31;4.10;99.90
6518;DHT22;3292;48.944;9.240;2024-03-02T04:02:57;4.10;99.90
6518;DHT22;3292;48.944;9.240;2024-03-02T04:05:25;4.00;99.90
6518;DHT22;3292;48.944;9.240;2024-03-02T04:07:53;4.00;99.90
6518;DHT22;3292;48.944;9.240;2024-03-02T04:10:19;4.00;99.90
6518;DHT22;3292;48.944;9.240;2024-03-02T04:12:46;3.90;99.90
6518;DHT22;3292;48.944;9.240;2024-03-02T04:15:13;3.90;99.90
6518;DHT22;3292;48.944;9.240;2024-03-02T04:17:40;3.90;99.90
6518;DHT22;3292;48.944;9.240;2024-03-02T04:20:07;3.90;99.90
6518;DHT22;3292;48.944;9.240;2024-03-02T04:22:35;3.80;99.90
6518;DHT22;3292;48.944;9.240;2024-03-02T04:25:02;3.80;99.90
6518;DHT22;3292;48.944;9.240;2024-03-02T04:27:30;3.80;99.90
6518;DHT22;3292;48.944;9.240;2024-03-02T04:29:58;3.80;99.90
6518;DHT22;3292;48.944;9.240;2024-03-02T04:32:26;3.80;99.90
6518;DHT22;3292;48.944;9.240;2024-03-02T04:34:52;3.80;99.90
6518;DHT22;3292;48.944;9.240;2024-03-02T04:37:19;3.80;99.90
6518;DHT22;3292;48.944;9.240;2024-03-02T04:39:47;3.80;99.90
6518;DHT22;3292;48.944;9.240;2024-03-02T04:42:14;3.80;99.90
6518;DHT22;3292;48.944;9.240;2024-03-02T04:44:41;3.80;99.90
6518;DHT22;3292;48.944;9.240;2024-03-02T04:47:08;3.90;99.90
6518;DHT22;3292;48.944;9.240;2024-03-02T04:49:35;3.80;99.90
6518;DHT22;3292;48.944;9.240;2024-03-02T04:52:02;3.80;99.90
6518;DHT22;3292;48.944;9.240;2024-03-02T04:54:28;3.70;99.90
6518;DHT22;3292;48.944;9.240;2024-03-02T04:56:57;3.70;99.90
6518;DHT22;3292;48.944;9.240;2024-03-02T04:59:24;3.60;99.90
6518;DHT22;3292;48.944;9.240;2024-03-02T05:01:50;3.60;99.90
6518;DHT22;3292;48.944;9.240;2024-03-02T05:04:17;3.50;99.90
6518;DHT22;3292;48.944;9.240;2024-03-02T05:06:44;3.60;99.90
6518;DHT22;3292;48.944;9.240;2024-03-02T05:09:17;3.60;99.90
6518;DHT22;3292;48.944;9.240;2024-03-02T05:11:44;3.60;99.90
6518;DHT22;3292;48.944;9.240;2024-03-02T05:14:36;3.60;99.90
6518;DHT22;3292;48.944;9.240;2024-03-02T05:17:04;3.50;99.90
6518;DHT22;3292;48.944;9.240;2024-03-02T05:19:31;3.50;99.90
6518;DHT22;3292;48.944;9.240;2024-03-02T05:21:57;3.50;99.90
6518;DHT22;3292;48.944;9.240;2024-03-02T05:24:24;3.50;99.90
6518;DHT22;3292;48.944;9.240;2024-03-02T05:26:53;3.40;99.90
6518;DHT22;3292;48.944;9.240;2024-03-02T05:29:20;3.40;99.90
6518;DHT22;3292;48.944;9.240;2024-03-02T05:31:48;3.40;99.90
6518;DHT22;3292;48.944;9.240;2024-03-02T05:34:15;3.40;99.90
6518;DHT22;3292;48.944;9.240;2024-03-02T05:36:42;3.30;99.90
6518;DHT22;3292;48.944;9.240;2024-03-02T05:39:09;3.30;99.90
6518;DHT22;3292;48.944;9.240;2024-03-02T05:41:36;3.30;99.90
6518;DHT22;3292;48.944;9.240;2024-03-02T05:44:03;3.20;99.90
6518;DHT22;3292;48.944;9.240;2024-03-02T05:46:30;3.20;99.90
6518;DHT22;3292;48.944;9.240;2024-03-02T05:48:59;3.20;99.90
6518;DHT22;3292;48.944;9.240;2024-03-02T05:51:25;3.20;99.90
6518;DHT22;3292;48.944;9.240;2024-03-02T05:53:52;3.20;99.90
6518;DHT22;3292;48.944;9.240;2024-03-02T05:56:19;3.20;99.90
6518;DHT22;3292;48.944;9.240;2024-03-02T05:58:46;3.20;99.90
6518;DHT22;3292;48.944;9.240;2024-03-02T06:01:23;3.20;99.90
6518;DHT22;3292;48.944;9.240;2024-03-02T06:03:54;3.20;99.90
6518;DHT22;3292;48.944;9.240;2024-03-02T06:06:22;3.20;99.90
6518;DHT22;3292;48.944;9.240;2024-03-02T06:08:49;3.10;99.90
6518;DHT22;3292;48.944;9.240;2024-03-02T06:11:16;3.10;99.90
6518;DHT22;3292;48.944;9.240;2024-03-02T06:13:43;3.10;99.90
6518;DHT22;3292;48.944;9.240;2024-03-02T06:16:09;3.10;99.90
6518;DHT22;3292;48.944;9.240;2024-03-02T06:18:36;3.10;99.90
6518;DHT22;3292;48.944;9.240;2024-03-02T06:21:04;3.10;99.90
6518;DHT22;3292;48.944;9.240;2024-03-02T06:23:32;3.10;99.90
6518;DHT22;3292;48.944;9.240;2024-03-02T06:25:59;3.20;99.90
6518;DHT22;3292;48.944;9.240;2024-03-02T06:28:25;3.20;99.90
6518;DHT22;3292;48.944;9.240;2024-03-02T06:30:52;3.30;99.90
6518;DHT22;3292;48.944;9.240;2024-03-02T06:33:19;3.30;99.90
6518;DHT22;3292;48.944;9.240;2024-03-02T06:35:46;3.30;99.90
6518;DHT22;3292;48.944;9.240;2024-03-02T06:38:14;3.30;99.90
6518;DHT22;3292;48.944;9.240;2024-03-02T06:40:42;3.30;99.90
6518;DHT22;3292;48.944;9.240;2024-03-02T06:43:09;3.40;99.90
6518;DHT22;3292;48.944;9.240;2024-03-02T06:45:36;3.40;99.90
6518;DHT22;3292;48.944;9.240;2024-03-02T06:48:03;3.50;99.90
6518;DHT22;3292;48.944;9.240;2024-03-02T06:50:30;3.50;99.90
6518;DHT22;3292;48.944;9.240;2024-03-02T06:52:57;3.60;99.90
6518;DHT22;3292;48.944;9.240;2024-03-02T06:55:24;3.60;99.90
6518;DHT22;3292;48.944;9.240;2024-03-02T06:57:52;3.70;99.90
6518;DHT22;3292;48.944;9.240;2024-03-02T07:00:19;3.80;99.90
6518;DHT22;3292;48.944;9.240;2024-03-02T07:02:46;3.90;99.90
6518;DHT22;3292;48.944;9.240;2024-03-02T07:05:13;4.00;99.90
6518;DHT22;3292;48.944;9.240;2024-03-02T07:07:40;4.00;99.90
6518;DHT22;3292;48.944;9.240;2024-03-02T07:10:07;4.10;99.90
6518;DHT22;3292;48.944;9.240;2024-03-02T07:12:34;4.20;99.90
6518;DHT22;3292;48.944;9.240;2024-03-02T07:15:03;4.30;99.90
6518;DHT22;3292;48.944;9.240;2024-03-02T07:17:55;4.50;99.90
6518;DHT22;3292;48.944;9.240;2024-03-02T07:20:22;4.50;99.90
6518;DHT22;3292;48.944;9.240;2024-03-02T07:22:49;4.60;99.90
6518;DHT22;3292;48.944;9.240;2024-03-02T07:25:15;4.60;99.90
6518;DHT22;3292;48.944;9.240;2024-03-02T07:27:42;4.70;99.90
6518;DHT22;3292;48.944;9.240;2024-03-02T07:30:14;4.90;99.90
6518;DHT22;3292;48.944;9.240;2024-03-02T07:32:41;5.10;99.90
6518;DHT22;3292;48.944;9.240;2024-03-02T07:35:11;5.30;99.90
6518;DHT22;3292;48.944;9.240;2024-03-02T07:37:38;5.40;99.90
6518;DHT22;3292;48.944;9.240;2024-03-02T07:40:05;5.50;99.90
6518;DHT22;3292;48.944;9.240;2024-03-02T07:42:36;5.50;99.90
6518;DHT22;3292;48.944;9.240;2024-03-02T07:45:04;5.60;99.90
6518;DHT22;3292;48.944;9.240;2024-03-02T07:47:33;5.60;99.90
6518;DHT22;3292;48.944;9.240;2024-03-02T07:50:00;5.60;99.90
6518;DHT22;3292;48.944;9.240;2024-03-02T07:52:27;5.60;99.90
6518;DHT22;3292;48.944;9.240;2024-03-02T07:54:54;5.70;99.90
6518;DHT22;3292;48.944;9.240;2024-03-02T07:57:20;5.70;99.90
6518;DHT22;3292;48.944;9.240;2024-03-02T07:59:47;5.60;99.90
6518;DHT22;3292;48.944;9.240;2024-03-02T08:02:14;5.60;99.90
6518;DHT22;3292;48.944;9.240;2024-03-02T08:04:42;5.60;99.90
6518;DHT22;3292;48.944;9.240;2024-03-02T08:07:11;5.60;99.90
6518;DHT22;3292;48.944;9.240;2024-03-02T08:09:38;5.60;99.90
6518;DHT22;3292;48.944;9.240;2024-03-02T08:12:05;5.70;99.90
6518;DHT22;3292;48.944;9.240;2024-03-02T08:14:32;5.80;99.90
6518;DHT22;3292;48.944;9.240;2024-03-02T08:16:58;5.90;99.90
6518;DHT22;3292;48.944;9.240;2024-03-02T08:19:27;5.90;99.90
6518;DHT22;3292;48.944;9.240;2024-03-02T08:21:55;6.00;99.90
6518;DHT22;3292;48.944;9.240;2024-03-02T08:24:22;6.00;99.90
6518;DHT22;3292;48.944;9.240;2024-03-02T08:26:49;6.00;99.90
6518;DHT22;3292;48.944;9.240;2024-03-02T08:29:15;6.10;99.90
6518;DHT22;3292;48.944;9.240;2024-03-02T08:31:42;6.20;99.90
6518;DHT22;3292;48.944;9.240;2024-03-02T08:34:09;6.20;99.90
6518;DHT22;3292;48.944;9.240;2024-03-02T08:36:36;6.30;99.90
6518;DHT22;3292;48.944;9.240;2024-03-02T08:39:05;6.40;99.90
6518;DHT22;3292;48.944;9.240;2024-03-02T08:41:40;6.50;99.90
6518;DHT22;3292;48.944;9.240;2024-03-02T08:44:07;6.70;99.90
6518;DHT22;3292;48.944;9.240;2024-03-02T08:46:34;6.90;99.90
6518;DHT22;3292;48.944;9.240;2024-03-02T08:49:01;7.10;99.90
6518;DHT22;3292;48.944;9.240;2024-03-02T08:51:28;7.40;99.90
6518;DHT22;3292;48.944;9.240;2024-03-02T08:53:55;7.70;99.90
6518;DHT22;3292;48.944;9.240;2024-03-02T08:56:24;7.90;99.90
6518;DHT22;3292;48.944;9.240;2024-03-02T08:58:51;8.30;99.90
6518;DHT22;3292;48.944;9.240;2024-03-02T09:01:19;8.50;99.90
6518;DHT22;3292;48.944;9.240;2024-03-02T09:03:46;9.00;99.90
6518;DHT22;3292;48.944;9.240;2024-03-02T09:06:15;9.10;99.90
6518;DHT22;3292;48.944;9.240;2024-03-02T09:08:43;9.60;99.90
6518;DHT22;3292;48.944;9.240;2024-03-02T09:11:10;9.70;99.90
6518;DHT22;3292;48.944;9.240;2024-03-02T09:13:39;9.90;99.90
6518;DHT22;3292;48.944;9.240;2024-03-02T09:16:06;10.00;99.90
6518;DHT22;3292;48.944;9.240;2024-03-02T09:18:36;10.40;99.90
6518;DHT22;3292;48.944;9.240;2024-03-02T09:21:04;10.60;99.90
6518;DHT22;3292;48.944;9.240;2024-03-02T09:23:31;10.70;99.90
6518;DHT22;3292;48.944;9.240;2024-03-02T09:25:58;11.00;99.90
6518;DHT22;3292;48.944;9.240;2024-03-02T09:28:24;11.20;99.90
6518;DHT22;3292;48.944;9.240;2024-03-02T09:30:53;11.20;99.90
6518;DHT22;3292;48.944;9.240;2024-03-02T09:33:19;11.50;99.90
6518;DHT22;3292;48.944;9.240;2024-03-02T09:35:46;11.60;99.90
6518;DHT22;3292;48.944;9.240;2024-03-02T09:38:14;11.80;99.90
6518;DHT22;3292;48.944;9.240;2024-03-02T09:40:41;11.60;99.90
6518;DHT22;3292;48.944;9.240;2024-03-02T09:43:09;11.30;99.90
6518;DHT22;3292;48.944;9.240;2024-03-02T09:45:36;11.70;99.90
6518;DHT22;3292;48.944;9.240;2024-03-02T09:48:05;12.10;99.90
6518;DHT22;3292;48.944;9.240;2024-03-02T09:50:32;12.30;99.90
6518;DHT22;3292;48.944;9.240;2024-03-02T09:52:59;12.40;99.90
6518;DHT22;3292;48.944;9.240;2024-03-02T09:55:26;12.20;99.90
6518;DHT22;3292;48.944;9.240;2024-03-02T09:57:53;12.30;99.90
6518;DHT22;3292;48.944;9.240;2024-03-02T10:00:20;12.40;99.90
6518;DHT22;3292;48.944;9.240;2024-03-02T10:02:47;12.50;99.90
6518;DHT22;3292;48.944;9.240;2024-03-02T10:05:23;12.70;99.90
6518;DHT22;3292;48.944;9.240;2024-03-02T10:07:58;12.90;99.90
6518;DHT22;3292;48.944;9.240;2024-03-02T10:10:34;13.00;99.90
6518;DHT22;3292;48.944;9.240;2024-03-02T10:13:04;13.00;99.90
6518;DHT22;3292;48.944;9.240;2024-03-02T10:15:31;12.60;99.90
6518;DHT22;3292;48.944;9.240;2024-03-02T10:17:58;12.50;99.90
6518;DHT22;3292;48.944;9.240;2024-03-02T10:20:27;12.60;99.90
6518;DHT22;3292;48.944;9.240;2024-03-02T10:22:55;12.40;99.90
6518;DHT22;3292;48.944;9.240;2024-03-02T10:25:31;12.60;99.90
6518;DHT22;3292;48.944;9.240;2024-03-02T10:27:58;13.00;99.90
6518;DHT22;3292;48.944;9.240;2024-03-02T10:30:26;13.30;99.90
6518;DHT22;3292;48.944;9.240;2024-03-02T10:32:53;13.30;99.90
6518;DHT22;3292;48.944;9.240;2024-03-02T10:35:21;13.30;99.90
6518;DHT22;3292;48.944;9.240;2024-03-02T10:37:50;13.60;99.90
6518;DHT22;3292;48.944;9.240;2024-03-02T10:40:18;13.60;99.90
6518;DHT22;3292;48.944;9.240;2024-03-02T10:42:48;13.50;99.90
6518;DHT22;3292;48.944;9.240;2024-03-02T10:45:16;13.20;99.90
6518;DHT22;3292;48.944;9.240;2024-03-02T10:47:43;13.20;99.90
6518;DHT22;3292;48.944;9.240;2024-03-02T10:50:11;13.00;99.90
6518;DHT22;3292;48.944;9.240;2024-03-02T10:52:38;13.00;99.90
6518;DHT22;3292;48.944;9.240;2024-03-02T10:55:08;13.20;99.90
6518;DHT22;3292;48.944;9.240;2024-03-02T10:57:41;13.40;99.90
6518;DHT22;3292;48.944;9.240;2024-03-02T11:00:12;13.60;99.90
6518;DHT22;3292;48.944;9.240;2024-03-02T11:02:42;13.80;99.90
6518;DHT22;3292;48.944;9.240;2024-03-02T11:05:11;13.90;99.90
6518;DHT22;3292;48.944;9.240;2024-03-02T11:07:39;14.10;99.90
6518;DHT22;3292;48.944;9.240;2024-03-02T11:10:08;14.30;99.90
6518;DHT22;3292;48.944;9.240;2024-03-02T11:12:39;14.10;99.90
6518;DHT22;3292;48.944;9.240;2024-03-02T11:15:11;14.10;99.90
6518;DHT22;3292;48.944;9.240;2024-03-02T11:17:44;14.00;99.90
6518;DHT22;3292;48.944;9.240;2024-03-02T11:20:11;13.90;99.90
6518;DHT22;3292;48.944;9.240;2024-03-02T11:22:39;14.10;99.90
6518;DHT22;3292;48.944;9.240;2024-03-02T11:25:24;14.10;99.90
6518;DHT22;3292;48.944;9.240;2024-03-02T11:28:04;14.40;99.90
6518;DHT22;3292;48.944;9.240;2024-03-02T11:30:49;14.90;99.90
6518;DHT22;3292;48.944;9.240;2024-03-02T11:33:23;15.10;99.90
6518;DHT22;3292;48.944;9.240;2024-03-02T11:35:53;14.70;99.90
6518;DHT22;3292;48.944;9.240;2024-03-02T11:38:20;14.90;99.90
6518;DHT22;3292;48.944;9.240;2024-03-02T11:40:49;14.90;99.90
6518;DHT22;3292;48.944;9.240;2024-03-02T11:43:16;14.90;99.90
6518;DHT22;3292;48.944;9.240;2024-03-02T11:45:43;14.80;99.90
6518;DHT22;3292;48.944;9.240;2024-03-02T11:48:11;14.90;99.90
6518;DHT22;3292;48.944;9.240;2024-03-02T11:50:41;15.00;99.90
6518;DHT22;3292;48.944;9.240;2024-03-02T11:53:10;15.10;99.90
6518;DHT22;3292;48.944;9.240;2024-03-02T11:55:39;15.20;99.90
6518;DHT22;3292;48.944;9.240;2024-03-02T11:58:07;15.30;99.90
6518;DHT22;3292;48.944;9.240;2024-03-02T12:00:34;15.30;99.90
6518;DHT22;3292;48.944;9.240;2024-03-02T12:03:03;15.30;99.90
6518;DHT22;3292;48.944;9.240;2024-03-02T12:05:31;15.40;99.90
6518;DHT22;3292;48.944;9.240;2024-03-02T12:07:58;15.40;99.90
6518;DHT22;3292;48.944;9.240;2024-03-02T12:10:25;15.40;99.90
6518;DHT22;3292;48.944;9.240;2024-03-02T12:12:56;15.50;99.90
6518;DHT22;3292;48.944;9.240;2024-03-02T12:15:25;15.60;99.90
6518;DHT22;3292;48.944;9.240;2024-03-02T12:17:54;15.40;99.90
6518;DHT22;3292;48.944;9.240;2024-03-02T12:20:21;15.30;99.90
6518;DHT22;3292;48.944;9.240;2024-03-02T12:22:49;15.10;99.90
6518;DHT22;3292;48.944;9.240;2024-03-02T12:25:16;15.10;99.90
6518;DHT22;3292;48.944;9.240;2024-03-02T12:27:43;14.90;99.90
6518;DHT22;3292;48.944;9.240;2024-03-02T12:30:11;15.00;99.90
6518;DHT22;3292;48.944;9.240;2024-03-02T12:32:41;15.10;99.90
6518;DHT22;3292;48.944;9.240;2024-03-02T12:35:08;15.40;99.90
6518;DHT22;3292;48.944;9.240;2024-03-02T12:37:42;15.60;99.90
6518;DHT22;3292;48.944;9.240;2024-03-02T12:40:10;15.60;99.90
6518;DHT22;3292;48.944;9.240;2024-03-02T12:42:38;15.50;99.90
6518;DHT22;3292;48.944;9.240;2024-03-02T12:45:05;15.70;99.90
6518;DHT22;3292;48.944;9.240;2024-03-02T12:47:33;15.90;99.90
6518;DHT22;3292;48.944;9.240;2024-03-02T12:50:02;16.10;99.90
6518;DHT22;3292;48.944;9.240;2024-03-02T12:52:29;16.30;99.90
6518;DHT22;3292;48.944;9.240;2024-03-02T12:54:58;16.40;99.90
6518;DHT22;3292;48.944;9.240;2024-03-02T12:57:25;16.40;99.90
6518;DHT22;3292;48.944;9.240;2024-03-02T12:59:58;16.40;99.90
6518;DHT22;3292;48.944;9.240;2024-03-02T13:02:27;16.30;99.90
6518;DHT22;3292;48.944;9.240;2024-03-02T13:04:55;16.50;99.90
6518;DHT22;3292;48.944;9.240;2024-03-02T13:07:24;16.40;99.90
6518;DHT22;3292;48.944;9.240;2024-03-02T13:09:51;16.50;99.90
6518;DHT22;3292;48.944;9.240;2024-03-02T13:12:19;16.50;99.90
6518;DHT22;3292;48.944;9.240;2024-03-02T13:14:48;16.50;99.90
6518;DHT22;3292;48.944;9.240;2024-03-02T13:17:17;16.70;99.90
6518;DHT22;3292;48.944;9.240;2024-03-02T13:19:51;16.80;99.90
6518;DHT22;3292;48.944;9.240;2024-03-02T13:22:19;16.80;99.90
6518;DHT22;3292;48.944;9.240;2024-03-02T13:24:48;16.80;99.90
6518;DHT22;3292;48.944;9.240;2024-03-02T13:27:14;16.70;99.90
6518;DHT22;3292;48.944;9.240;2024-03-02T13:29:45;16.80;99.90
6518;DHT22;3292;48.944;9.240;2024-03-02T13:32:11;16.90;99.90
6518;DHT22;3292;48.944;9.240;2024-03-02T13:34:38;16.90;99.90
6518;DHT22;3292;48.944;9.240;2024-03-02T13:37:05;16.90;99.90
6518;DHT22;3292;48.944;9.240;2024-03-02T13:39:32;16.90;99.90
6518;DHT22;3292;48.944;9.240;2024-03-02T13:42:07;16.80;99.90
6518;DHT22;3292;48.944;9.240;2024-03-02T13:44:34;16.80;99.90
6518;DHT22;3292;48.944;9.240;2024-03-02T13:47:00;16.80;99.90
6518;DHT22;3292;48.944;9.240;2024-03-02T13:49:27;16.80;99.90
6518;DHT22;3292;48.944;9.240;2024-03-02T13:51:59;16.70;99.90
6518;DHT22;3292;48.944;9.240;2024-03-02T13:54:29;16.70;99.90
6518;DHT22;3292;48.944;9.240;2024-03-02T13:56:56;16.80;99.90
6518;DHT22;3292;48.944;9.240;2024-03-02T13:59:25;16.60;99.90
6518;DHT22;3292;48.944;9.240;2024-03-02T14:01:53;16.50;99.90
6518;DHT22;3292;48.944;9.240;2024-03-02T14:04:20;16.50;99.90
6518;DHT22;3292;48.944;9.240;2024-03-02T14:06:46;16.40;99.90
6518;DHT22;3292;48.944;9.240;2024-03-02T14:09:13;16.30;99.90
6518;DHT22;3292;48.944;9.240;2024-03-02T14:11:40;16.50;99.90
6518;DHT22;3292;48.944;9.240;2024-03-02T14:14:07;16.60;99.90
6518;DHT22;3292;48.944;9.240;2024-03-02T14:16:35;16.80;99.90
6518;DHT22;3292;48.944;9.240;2024-03-02T14:19:02;16.90;99.90
6518;DHT22;3292;48.944;9.240;2024-03-02T14:21:30;16.90;99.90
6518;DHT22;3292;48.944;9.240;2024-03-02T14:23:57;16.80;99.90
6518;DHT22;3292;48.944;9.240;2024-03-02T14:26:24;16.80;99.90
6518;DHT22;3292;48.944;9.240;2024-03-02T14:28:51;16.70;99.90
6518;DHT22;3292;48.944;9.240;2024-03-02T14:31:17;16.60;99.70
6518;DHT22;3292;48.944;9.240;2024-03-02T14:33:46;16.50;99.90
6518;DHT22;3292;48.944;9.240;2024-03-02T14:36:13;16.50;99.90
6518;DHT22;3292;48.944;9.240;2024-03-02T14:38:40;16.60;99.90
6518;DHT22;3292;48.944;9.240;2024-03-02T14:41:07;16.50;99.70
6518;DHT22;3292;48.944;9.240;2024-03-02T14:43:34;16.50;99.00
6518;DHT22;3292;48.944;9.240;2024-03-02T14:46:03;16.50;99.50
6518;DHT22;3292;48.944;9.240;2024-03-02T14:48:30;16.40;98.60
6518;DHT22;3292;48.944;9.240;2024-03-02T14:50:59;16.30;97.80
6518;DHT22;3292;48.944;9.240;2024-03-02T14:53:25;16.30;98.60
6518;DHT22;3292;48.944;9.240;2024-03-02T14:55:52;16.40;98.70
6518;DHT22;3292;48.944;9.240;2024-03-02T14:58:19;16.30;97.40
6518;DHT22;3292;48.944;9.240;2024-03-02T15:00:46;16.30;97.80
6518;DHT22;3292;48.944;9.240;2024-03-02T15:03:13;16.30;97.30
6518;DHT22;3292;48.944;9.240;2024-03-02T15:05:40;16.20;97.60
6518;DHT22;3292;48.944;9.240;2024-03-02T15:08:09;16.20;97.60
6518;DHT22;3292;48.944;9.240;2024-03-02T15:10:36;16.00;97.00
6518;DHT22;3292;48.944;9.240;2024-03-02T15:13:03;16.10;97.80
6518;DHT22;3292;48.944;9.240;2024-03-02T15:15:30;16.00;98.00
6518;DHT22;3292;48.944;9.240;2024-03-02T15:17:57;15.90;96.50
6518;DHT22;3292;48.944;9.240;2024-03-02T15:20:24;15.90;97.00
6518;DHT22;3292;48.944;9.240;2024-03-02T15:22:51;15.80;96.40
6518;DHT22;3292;48.944;9.240;2024-03-02T15:25:19;15.90;97.00
6518;DHT22;3292;48.944;9.240;2024-03-02T15:27:46;15.80;96.60
6518;DHT22;3292;48.944;9.240;2024-03-02T15:30:13;15.70;96.80
6518;DHT22;3292;48.944;9.240;2024-03-02T15:32:40;15.70;95.70
6518;DHT22;3292;48.944;9.240;2024-03-02T15:35:07;15.60;96.10
6518;DHT22;3292;48.944;9.240;2024-03-02T15:37:34;15.50;96.50
6518;DHT22;3292;48.944;9.240;2024-03-02T15:40:01;15.40;96.20
6518;DHT22;3292;48.944;9.240;2024-03-02T15:42:33;15.30;96.90
6518;DHT22;3292;48.944;9.240;2024-03-02T15:45:00;15.20;97.70
6518;DHT22;3292;48.944;9.240;2024-03-02T15:47:27;15.20;97.90
6518;DHT22;3292;48.944;9.240;2024-03-02T15:49:54;15.10;98.20
6518;DHT22;3292;48.944;9.240;2024-03-02T15:52:21;15.10;98.30
6518;DHT22;3292;48.944;9.240;2024-03-02T15:54:48;14.90;98.20
6518;DHT22;3292;48.944;9.240;2024-03-02T15:57:15;14.90;98.40
6518;DHT22;3292;48.944;9.240;2024-03-02T15:59:43;14.80;98.00
6518;DHT22;3292;48.944;9.240;2024-03-02T16:02:10;14.70;98.10
6518;DHT22;3292;48.944;9.240;2024-03-02T16:04:37;14.70;97.90
6518;DHT22;3292;48.944;9.240;2024-03-02T16:07:04;14.60;96.80
6518;DHT22;3292;48.944;9.240;2024-03-02T16:09:31;14.50;97.00
6518;DHT22;3292;48.944;9.240;2024-03-02T16:11:58;14.50;97.40
6518;DHT22;3292;48.944;9.240;2024-03-02T16:14:25;14.40;97.50